createdAt,value
2023-10-01T00:03:37.146Z,100.00
2023-10-01T00:08:44.656Z,99.73
2023-10-01T00:13:50.321Z,99.04
2023-10-01T00:18:55.929Z,99.27
2023-10-01T00:24:00.990Z,99.91
2023-10-01T00:29:05.919Z,100.00
2023-10-01T00:34:11.805Z,100.00
2023-10-01T00:39:16.650Z,100.00
2023-10-01T00:44:21.615Z,100.00
2023-10-01T00:49:33.388Z,100.00
2023-10-01T00:54:38.581Z,100.00
2023-10-01T00:59:44.728Z,100.00
2023-10-01T01:05:07.936Z,100.00
2023-10-01T01:10:17.804Z,100.00
2023-10-01T01:15:31.853Z,100.00
2023-10-01T01:20:44.863Z,100.00
2023-10-01T01:25:53.497Z,100.00
2023-10-01T01:31:01.168Z,100.00
2023-10-01T01:36:07.601Z,100.00
2023-10-01T01:41:20.530Z,100.00
2023-10-01T01:46:26.706Z,100.00
2023-10-01T01:51:32.267Z,100.00
2023-10-01T01:56:41.550Z,100.00
2023-10-01T02:01:46.899Z,100.00
2023-10-01T02:06:54.189Z,100.00
2023-10-01T02:12:01.092Z,100.00
2023-10-01T02:17:18.999Z,100.00
2023-10-01T02:22:25.799Z,100.00
2023-10-01T02:27:45.561Z,100.00
2023-10-01T02:33:15.514Z,100.00
2023-10-01T02:38:38.212Z,100.00
2023-10-01T02:43:56.755Z,100.00
2023-10-01T02:49:15.819Z,100.00
2023-10-01T02:54:23.510Z,100.00
2023-10-01T02:59:30.955Z,100.00
2023-10-01T03:04:37.561Z,100.00
2023-10-01T03:09:42.508Z,100.00
2023-10-01T03:15:05.144Z,100.00
2023-10-01T03:20:35.818Z,100.00
2023-10-01T03:25:44.001Z,100.00
2023-10-01T03:30:53.339Z,100.00
2023-10-01T03:35:59.264Z,100.00
2023-10-01T03:41:10.102Z,100.00
2023-10-01T03:46:28.161Z,100.00
2023-10-01T03:51:51.948Z,100.00
2023-10-01T03:57:00.371Z,100.00
2023-10-01T04:02:26.932Z,100.00
2023-10-01T04:07:41.994Z,100.00
2023-10-01T04:12:51.369Z,100.00
2023-10-01T04:18:10.731Z,100.00
2023-10-01T04:23:25.294Z,100.00
2023-10-01T04:28:32.660Z,100.00
2023-10-01T04:33:44.321Z,100.00
2023-10-01T04:38:50.221Z,100.00
2023-10-01T04:44:07.492Z,100.00
2023-10-01T04:54:48.665Z,100.00
2023-10-01T04:59:59.753Z,100.00
2023-10-01T05:05:12.491Z,100.00
2023-10-01T05:10:19.152Z,100.00
2023-10-01T05:15:26.686Z,100.00
2023-10-01T05:20:30.527Z,100.00
2023-10-01T05:25:35.466Z,100.00
2023-10-01T05:30:40.564Z,100.00
2023-10-01T05:35:46.074Z,100.00
2023-10-01T05:40:56.478Z,100.00
2023-10-01T05:46:03.293Z,100.00
2023-10-01T05:51:07.875Z,100.00
2023-10-01T05:56:16.438Z,100.00
2023-10-01T06:01:23.710Z,100.00
2023-10-01T06:06:27.024Z,100.00
2023-10-01T06:11:42.847Z,100.00
2023-10-01T06:16:50.861Z,100.00
2023-10-01T06:22:14.177Z,100.00
2023-10-01T06:27:20.520Z,100.00
2023-10-01T06:32:25.142Z,100.00
2023-10-01T06:37:47.082Z,100.00
2023-10-01T06:42:52.087Z,100.00
2023-10-01T06:47:55.294Z,100.00
2023-10-01T06:53:01.291Z,100.00
2023-10-01T06:58:09.835Z,100.00
2023-10-01T07:03:23.447Z,100.00
2023-10-01T07:08:38.964Z,99.37
2023-10-01T07:13:44.346Z,96.45
2023-10-01T07:18:47.895Z,95.74
2023-10-01T07:23:51.146Z,94.41
2023-10-01T07:28:59.655Z,94.24
2023-10-01T07:34:03.432Z,92.14
2023-10-01T07:39:07.124Z,90.09
2023-10-01T07:44:12.377Z,87.97
2023-10-01T07:49:20.298Z,86.23
2023-10-01T07:54:25.809Z,85.59
2023-10-01T07:59:35.376Z,82.72
2023-10-01T08:04:59.193Z,81.35
2023-10-01T08:10:06.209Z,79.46
2023-10-01T08:15:37.085Z,77.56
2023-10-01T08:20:47.463Z,76.62
2023-10-01T08:25:52.832Z,76.26
2023-10-01T08:31:20.835Z,75.54
2023-10-01T08:36:27.163Z,73.83
2023-10-01T08:41:33.917Z,72.34
2023-10-01T08:46:41.580Z,72.19
2023-10-01T08:51:45.539Z,71.43
2023-10-01T08:56:48.642Z,70.76
2023-10-01T09:01:57.223Z,70.94
2023-10-01T09:07:01.467Z,70.56
2023-10-01T09:12:19.614Z,70.11
2023-10-01T09:17:28.004Z,71.35
2023-10-01T09:22:44.508Z,69.76
2023-10-01T09:28:01.031Z,67.10
2023-10-01T09:33:16.162Z,66.82
2023-10-01T09:38:21.249Z,67.30
2023-10-01T09:43:32.261Z,66.46
2023-10-01T09:48:38.456Z,66.06
2023-10-01T09:53:49.184Z,66.74
2023-10-01T09:58:59.053Z,66.06
2023-10-01T10:04:06.029Z,65.16
2023-10-01T10:09:26.672Z,64.33
2023-10-01T10:14:58.010Z,64.02
2023-10-01T10:20:38.961Z,63.44
2023-10-01T10:25:43.001Z,61.94
2023-10-01T10:31:35.726Z,61.10
2023-10-01T10:36:52.069Z,60.73
2023-10-01T10:42:30.680Z,60.74
2023-10-01T10:48:01.531Z,59.72
2023-10-01T10:53:16.206Z,59.46
2023-10-01T10:58:21.250Z,59.92
2023-10-01T11:03:42.555Z,59.45
2023-10-01T11:08:52.731Z,58.46
2023-10-01T11:14:08.669Z,57.98
2023-10-01T11:19:15.143Z,56.65
2023-10-01T11:24:20.223Z,57.21
2023-10-01T11:29:24.322Z,56.16
2023-10-01T11:34:32.330Z,55.99
2023-10-01T11:39:42.149Z,55.99
2023-10-01T11:44:45.487Z,56.57
2023-10-01T11:50:08.364Z,54.54
2023-10-01T11:55:21.644Z,54.58
2023-10-01T12:00:53.827Z,52.43
2023-10-01T12:05:58.647Z,52.67
2023-10-01T12:11:24.465Z,51.64
2023-10-01T12:16:31.304Z,50.98
2023-10-01T12:21:35.319Z,51.28
2023-10-01T12:26:40.214Z,52.66
2023-10-01T12:31:46.215Z,52.88
2023-10-01T12:36:49.524Z,52.65
2023-10-01T12:41:58.858Z,52.49
2023-10-01T12:47:04.295Z,53.27
2023-10-01T12:52:10.379Z,53.63
2023-10-01T12:57:19.739Z,53.65
2023-10-01T13:02:30.380Z,54.68
2023-10-01T13:07:37.385Z,53.46
2023-10-01T13:12:55.160Z,54.17
2023-10-01T13:18:02.681Z,54.20
2023-10-01T13:23:08.414Z,54.61
2023-10-01T13:28:19.290Z,52.98
2023-10-01T13:33:27.651Z,53.35
2023-10-01T13:38:57.627Z,52.84
2023-10-01T13:44:20.215Z,54.31
2023-10-01T13:49:40.737Z,54.17
2023-10-01T13:55:01.510Z,55.07
2023-10-01T14:00:24.652Z,55.08
2023-10-01T14:05:45.556Z,55.41
2023-10-01T14:10:52.836Z,55.19
2023-10-01T14:16:13.081Z,55.91
2023-10-01T14:21:16.968Z,55.71
2023-10-01T14:26:22.493Z,55.88
2023-10-01T14:31:42.698Z,55.42
2023-10-01T14:36:46.898Z,55.87
2023-10-01T14:41:51.905Z,55.54
2023-10-01T14:46:58.352Z,56.60
2023-10-01T14:52:01.678Z,56.05
2023-10-01T14:57:05.217Z,55.38
2023-10-01T15:02:16.659Z,55.65
2023-10-01T15:07:22.619Z,56.81
2023-10-01T15:12:34.071Z,55.96
2023-10-01T15:17:56.336Z,57.25
2023-10-01T15:22:59.814Z,57.65
2023-10-01T15:28:11.054Z,58.34
2023-10-01T15:33:19.498Z,59.00
2023-10-01T15:38:34.589Z,59.51
2023-10-01T15:43:44.215Z,59.72
2023-10-01T15:48:51.236Z,59.91
2023-10-01T15:53:55.468Z,61.44
2023-10-01T15:59:04.142Z,61.38
2023-10-01T16:04:14.776Z,62.37
2023-10-01T16:09:18.479Z,62.75
2023-10-01T16:14:28.016Z,64.03
2023-10-01T16:19:34.067Z,63.96
2023-10-01T16:24:40.458Z,64.61
2023-10-01T16:29:44.614Z,66.08
2023-10-01T16:34:49.845Z,66.96
2023-10-01T16:39:53.566Z,68.00
2023-10-01T16:44:59.371Z,68.55
2023-10-01T16:50:15.676Z,69.19
2023-10-01T16:55:22.135Z,70.00
2023-10-01T17:00:38.784Z,71.01
2023-10-01T17:05:43.927Z,71.37
2023-10-01T17:10:48.315Z,72.21
2023-10-01T17:15:53.803Z,73.36
2023-10-01T17:20:58.543Z,74.50
2023-10-01T17:26:04.259Z,74.88
2023-10-01T17:31:08.714Z,75.10
2023-10-01T17:36:15.461Z,76.08
2023-10-01T17:41:23.573Z,76.70
2023-10-01T17:46:34.308Z,77.90
2023-10-01T17:51:45.920Z,79.35
2023-10-01T17:56:49.381Z,79.45
2023-10-01T18:01:53.259Z,80.34
2023-10-01T18:06:58.900Z,81.44
2023-10-01T18:12:15.220Z,82.29
2023-10-01T18:17:18.790Z,82.98
2023-10-01T18:22:26.550Z,84.13
2023-10-01T18:27:29.983Z,84.37
2023-10-01T18:32:34.152Z,85.43
2023-10-01T18:37:39.380Z,85.89
2023-10-01T18:42:44.358Z,86.10
2023-10-01T18:47:49.504Z,86.83
2023-10-01T18:52:56.097Z,87.69
2023-10-01T18:58:00.027Z,88.55
2023-10-01T19:03:03.205Z,88.67
2023-10-01T19:08:08.706Z,87.70
2023-10-01T19:13:14.453Z,87.92
2023-10-01T19:18:17.899Z,87.96
2023-10-01T19:23:31.748Z,88.30
2023-10-01T19:28:36.388Z,88.91
2023-10-01T19:33:39.999Z,89.72
2023-10-01T19:38:48.705Z,90.23
2023-10-01T19:43:56.175Z,90.77
2023-10-01T19:49:01.209Z,90.90
2023-10-01T19:54:07.393Z,91.58
2023-10-01T19:59:18.368Z,92.82
2023-10-01T20:04:22.639Z,93.05
2023-10-01T20:09:28.981Z,94.19
2023-10-01T20:14:36.826Z,94.96
2023-10-01T20:19:44.685Z,95.36
2023-10-01T20:24:53.652Z,96.35
2023-10-01T20:29:57.545Z,96.38
2023-10-01T20:35:03.730Z,96.38
2023-10-01T20:40:14.210Z,96.81
2023-10-01T20:45:35.036Z,97.84
2023-10-01T20:50:41.571Z,97.96
2023-10-01T20:55:46.516Z,98.69
2023-10-01T21:00:52.137Z,98.81
2023-10-01T21:05:56.717Z,98.69
2023-10-01T21:11:03.637Z,98.62
2023-10-01T21:16:07.264Z,99.17
2023-10-01T21:21:12.610Z,99.28
2023-10-01T21:26:25.077Z,99.13
2023-10-01T21:31:31.651Z,99.30
2023-10-01T21:36:40.130Z,99.64
2023-10-01T21:41:51.076Z,100.00
2023-10-01T21:46:57.930Z,100.00
2023-10-01T21:52:07.840Z,100.00
2023-10-01T21:57:12.312Z,100.00
2023-10-01T22:02:20.002Z,100.00
2023-10-01T22:07:24.822Z,100.00
2023-10-01T22:12:30.476Z,100.00
2023-10-01T22:17:36.236Z,100.00
2023-10-01T22:22:50.849Z,100.00
2023-10-01T22:28:03.694Z,100.00
2023-10-01T22:33:16.935Z,100.00
2023-10-01T22:38:21.268Z,100.00
2023-10-01T22:43:28.367Z,100.00
2023-10-01T22:48:44.868Z,100.00
2023-10-01T22:53:48.346Z,100.00
2023-10-01T22:58:52.905Z,100.00
2023-10-01T23:04:10.819Z,100.00
2023-10-01T23:09:20.036Z,100.00
2023-10-01T23:14:43.707Z,100.00
2023-10-01T23:19:54.633Z,100.00
2023-10-01T23:24:58.502Z,100.00
2023-10-01T23:30:21.318Z,100.00
2023-10-01T23:40:55.489Z,100.00
2023-10-01T23:46:01.655Z,100.00
2023-10-01T23:51:10.493Z,100.00
2023-10-01T23:56:15.327Z,100.00
